Time;durP1;ratioP1;P1;durP2;ratioP2;P2;SDS_P1;SDS_P2;PMS_P1;PMS_P2;Temp;Humidity;BMP_temperature;BMP_pressure;BME280_temperature;BME280_humidity;BME280_pressure;Samples;Min_cycle;Max_cycle;Signal;HPM_P1;HPM_P2
2023/04/11 00:00:12;;;;;;;1.60;1.50;;;9.50;99.90;;;;;;487321;244;27964;-76
2023/04/11 00:02:13;;;;;;;1.20;1.10;;;9.40;99.90;;;;;;487296;244;27763;-76
2023/04/11 00:04:15;;;;;;;2.00;1.40;;;9.40;99.90;;;;;;487246;244;28076;-76
2023/04/11 00:06:16;;;;;;;2.83;1.20;;;9.40;99.90;;;;;;487243;244;27931;-76
2023/04/11 00:08:17;;;;;;;2.03;1.50;;;9.50;99.90;;;;;;487243;244;27812;-76
2023/04/11 00:10:18;;;;;;;1.47;1.37;;;9.40;99.90;;;;;;487320;244;28609;-76
2023/04/11 00:12:20;;;;;;;1.53;1.37;;;9.40;99.90;;;;;;487306;244;27966;-76
2023/04/11 00:14:21;;;;;;;1.83;1.40;;;9.40;99.90;;;;;;487257;243;27997;-76
2023/04/11 00:16:23;;;;;;;2.03;1.23;;;9.40;99.90;;;;;;487265;243;27888;-76
2023/04/11 00:18:24;;;;;;;2.70;1.30;;;9.40;99.90;;;;;;487215;244;27905;-76
2023/04/11 00:20:25;;;;;;;1.73;1.40;;;9.40;99.90;;;;;;487303;244;28798;-76
2023/04/11 00:22:26;;;;;;;8.73;1.60;;;9.30;99.90;;;;;;487319;244;28283;-75
2023/04/11 00:24:27;;;;;;;2.27;1.20;;;9.30;99.90;;;;;;487225;243;28369;-75
2023/04/11 00:26:28;;;;;;;1.40;1.30;;;9.30;99.90;;;;;;487272;244;28391;-76
2023/04/11 00:28:30;;;;;;;2.03;1.20;;;9.30;99.90;;;;;;487258;244;28377;-75
2023/04/11 00:30:31;;;;;;;4.30;1.47;;;9.40;99.90;;;;;;487326;244;28024;-76
2023/04/11 00:32:32;;;;;;;2.63;1.40;;;9.30;99.90;;;;;;487306;244;27877;-76
2023/04/11 00:34:33;;;;;;;2.50;1.37;;;9.30;99.90;;;;;;487235;244;27899;-76
2023/04/11 00:36:35;;;;;;;1.20;1.10;;;9.20;99.90;;;;;;487275;244;27906;-75
2023/04/11 00:38:37;;;;;;;2.10;1.40;;;9.10;99.90;;;;;;487272;244;27623;-76
2023/04/11 00:40:37;;;;;;;2.13;1.20;;;9.10;99.90;;;;;;487312;244;27910;-76
2023/04/11 00:42:39;;;;;;;1.47;1.17;;;9.10;99.90;;;;;;487335;244;27955;-76
2023/04/11 00:44:40;;;;;;;1.60;1.50;;;9.10;99.90;;;;;;487228;244;27925;-75
2023/04/11 00:46:41;;;;;;;1.20;1.10;;;9.10;99.90;;;;;;487266;244;28042;-76
2023/04/11 00:48:42;;;;;;;1.47;1.20;;;9.00;99.90;;;;;;487272;244;27994;-76
2023/04/11 00:50:43;;;;;;;3.87;1.70;;;9.00;99.90;;;;;;487331;244;28233;-75
2023/04/11 00:52:45;;;;;;;1.70;1.23;;;9.00;99.90;;;;;;487304;244;27888;-76
2023/04/11 00:54:46;;;;;;;1.77;1.20;;;9.10;99.90;;;;;;487224;244;27813;-76
2023/04/11 00:56:47;;;;;;;2.10;1.10;;;9.00;99.90;;;;;;487247;244;27628;-76
2023/04/11 00:58:48;;;;;;;2.20;1.73;;;9.00;99.90;;;;;;487251;244;28520;-76
2023/04/11 01:00:50;;;;;;;1.50;1.40;;;9.00;99.90;;;;;;487274;244;28669;-76
2023/04/11 01:02:51;;;;;;;2.57;1.20;;;9.00;99.90;;;;;;487310;244;28345;-76
2023/04/11 01:04:52;;;;;;;2.60;1.30;;;9.00;99.90;;;;;;487245;244;28258;-75
2023/04/11 01:06:54;;;;;;;1.50;1.40;;;9.00;99.90;;;;;;487287;243;28096;-76
2023/04/11 01:08:55;;;;;;;2.27;1.40;;;9.00;99.90;;;;;;487281;244;27750;-76
2023/04/11 01:10:56;;;;;;;2.83;1.50;;;9.00;99.90;;;;;;487276;244;28028;-75
2023/04/11 01:12:57;;;;;;;1.33;1.23;;;9.00;99.90;;;;;;487290;244;27747;-76
2023/04/11 01:14:58;;;;;;;1.20;1.20;;;9.00;99.90;;;;;;487206;244;27940;-76
2023/04/11 01:17:00;;;;;;;1.60;1.50;;;9.00;99.90;;;;;;487277;244;27911;-76
2023/04/11 01:19:01;;;;;;;1.33;1.23;;;9.00;99.90;;;;;;487242;244;27807;-76
2023/04/11 01:21:02;;;;;;;2.40;1.10;;;8.90;99.90;;;;;;487265;244;27617;-76
2023/04/11 01:23:03;;;;;;;2.03;1.20;;;8.90;99.90;;;;;;487282;244;27975;-75
2023/04/11 01:25:05;;;;;;;1.83;1.40;;;8.90;99.90;;;;;;487242;243;27729;-75
2023/04/11 01:27:06;;;;;;;1.23;1.20;;;8.90;99.90;;;;;;487295;244;27506;-75
2023/04/11 01:29:07;;;;;;;3.83;1.57;;;9.00;99.90;;;;;;487241;244;27877;-76
2023/04/11 01:31:08;;;;;;;1.73;1.43;;;9.00;99.90;;;;;;487222;244;28036;-76
2023/04/11 01:33:13;;;;;;;1.73;1.50;;;9.00;99.90;;;;;;487265;244;28089;-75
2023/04/11 01:35:14;;;;;;;2.27;1.40;;;9.00;99.90;;;;;;487250;244;27879;-76
2023/04/11 01:37:15;;;;;;;2.00;1.30;;;9.00;99.90;;;;;;487303;244;27816;-75
2023/04/11 01:39:16;;;;;;;3.13;1.60;;;9.00;99.90;;;;;;487259;244;27996;-75
2023/04/11 01:41:18;;;;;;;1.63;1.40;;;9.00;99.90;;;;;;487228;244;27812;-76
2023/04/11 01:43:19;;;;;;;4.20;1.60;;;9.00;99.90;;;;;;487313;244;27832;-75
2023/04/11 01:45:20;;;;;;;4.40;1.73;;;9.00;99.90;;;;;;487210;244;27914;-76
2023/04/11 01:47:21;;;;;;;2.70;1.57;;;9.00;99.90;;;;;;487252;244;27933;-76
2023/04/11 01:49:23;;;;;;;1.50;1.40;;;9.00;99.90;;;;;;487246;244;27864;-76
2023/04/11 01:51:24;;;;;;;2.07;1.50;;;9.00;99.90;;;;;;487243;244;27854;-76
2023/04/11 01:53:25;;;;;;;2.60;1.80;;;9.00;99.90;;;;;;487295;244;27950;-76
2023/04/11 01:55:26;;;;;;;3.63;1.90;;;8.90;99.90;;;;;;487221;244;27798;-76
2023/04/11 01:57:28;;;;;;;2.47;2.03;;;8.90;99.90;;;;;;487311;244;28000;-76
2023/04/11 01:59:29;;;;;;;2.13;1.77;;;8.90;99.90;;;;;;487272;244;27620;-74
2023/04/11 02:01:30;;;;;;;9.10;2.27;;;8.90;99.90;;;;;;487253;244;28035;-76
2023/04/11 02:03:31;;;;;;;5.43;1.70;;;8.90;99.90;;;;;;487300;244;28510;-76
2023/04/11 02:05:33;;;;;;;3.60;2.10;;;8.80;99.90;;;;;;487263;244;28328;-75
2023/04/11 02:07:34;;;;;;;2.00;1.50;;;8.80;99.90;;;;;;487289;244;28415;-76
2023/04/11 02:09:35;;;;;;;3.50;1.70;;;8.90;99.90;;;;;;487195;244;28315;-75
2023/04/11 02:11:36;;;;;;;4.67;1.60;;;8.90;99.90;;;;;;487273;244;28436;-76
2023/04/11 02:13:38;;;;;;;4.00;1.80;;;8.90;99.90;;;;;;487284;244;27955;-76
2023/04/11 02:15:39;;;;;;;2.50;1.87;;;8.90;99.90;;;;;;487259;244;27769;-76
2023/04/11 02:17:44;;;;;;;4.53;1.93;;;8.90;99.90;;;;;;487280;244;27667;-76
2023/04/11 02:19:44;;;;;;;2.70;1.90;;;8.80;99.90;;;;;;487067;244;27911;-75
2023/04/11 02:21:43;;;;;;;2.40;1.70;;;8.90;99.90;;;;;;487153;244;27946;-76
2023/04/11 02:23:44;;;;;;;5.53;2.37;;;8.80;99.90;;;;;;487269;244;27415;-75
2023/04/11 02:25:45;;;;;;;1.53;1.43;;;8.80;99.90;;;;;;487251;244;27991;-75
2023/04/11 02:27:46;;;;;;;1.80;1.40;;;8.80;99.90;;;;;;487282;244;27916;-76
2023/04/11 02:29:48;;;;;;;2.60;1.70;;;8.80;99.90;;;;;;487256;244;27717;-75
2023/04/11 02:31:49;;;;;;;4.03;1.87;;;8.80;99.90;;;;;;487308;244;27539;-75
2023/04/11 02:33:50;;;;;;;2.80;1.60;;;8.80;99.90;;;;;;487293;244;27899;-76
2023/04/11 02:35:51;;;;;;;3.70;2.10;;;8.80;99.90;;;;;;487262;244;27761;-76
2023/04/11 02:37:53;;;;;;;2.10;1.50;;;8.80;99.90;;;;;;487289;244;27789;-75
2023/04/11 02:39:54;;;;;;;3.27;1.50;;;8.80;99.90;;;;;;487293;244;28073;-75
2023/04/11 02:41:56;;;;;;;2.57;1.67;;;8.80;99.90;;;;;;487300;244;28299;-75
2023/04/11 02:43:56;;;;;;;1.80;1.60;;;8.70;99.90;;;;;;487272;244;28756;-76
2023/04/11 02:45:59;;;;;;;4.93;1.73;;;8.80;99.90;;;;;;487281;244;28427;-75
2023/04/11 02:47:59;;;;;;;3.13;1.73;;;8.80;99.90;;;;;;487237;244;28401;-76
2023/04/11 02:50:00;;;;;;;2.50;1.70;;;8.80;99.90;;;;;;487279;244;27723;-75
2023/04/11 02:52:01;;;;;;;3.23;1.70;;;8.80;99.90;;;;;;487155;244;27570;-75
2023/04/11 02:54:04;;;;;;;2.90;1.67;;;8.80;99.90;;;;;;487224;244;27882;-75
2023/04/11 02:56:04;;;;;;;6.87;1.60;;;8.80;99.90;;;;;;487146;244;27482;-75
2023/04/11 02:58:06;;;;;;;1.60;1.47;;;8.70;99.90;;;;;;487268;244;27738;-75
2023/04/11 03:00:07;;;;;;;3.93;2.03;;;8.70;99.90;;;;;;487263;244;27992;-75
2023/04/11 03:02:08;;;;;;;1.90;1.70;;;8.70;99.90;;;;;;487223;244;27919;-75
2023/04/11 03:04:09;;;;;;;2.13;1.60;;;8.70;99.90;;;;;;487205;244;27957;-75
2023/04/11 03:06:10;;;;;;;3.87;1.60;;;8.60;99.90;;;;;;487213;244;27967;-75
2023/04/11 03:08:11;;;;;;;5.27;2.50;;;8.60;99.90;;;;;;487305;244;28033;-75
2023/04/11 03:10:13;;;;;;;2.10;1.50;;;8.60;99.90;;;;;;487246;244;27888;-75
2023/04/11 03:12:14;;;;;;;1.60;1.50;;;8.60;99.90;;;;;;487203;243;27796;-75
2023/04/11 03:14:15;;;;;;;3.13;1.33;;;8.60;99.90;;;;;;487220;244;27850;-75
2023/04/11 03:16:16;;;;;;;2.73;1.50;;;8.50;99.90;;;;;;487254;244;27910;-75
2023/04/11 03:18:18;;;;;;;1.80;1.50;;;8.50;99.90;;;;;;487242;244;28504;-75
2023/04/11 03:20:20;;;;;;;1.90;1.63;;;8.40;99.90;;;;;;487269;244;28349;-75
2023/04/11 03:22:20;;;;;;;1.73;1.30;;;8.50;99.90;;;;;;487214;244;28363;-75
2023/04/11 03:24:21;;;;;;;1.70;1.60;;;8.40;99.90;;;;;;487138;244;28936;-75
2023/04/11 03:26:25;;;;;;;4.50;1.40;;;8.40;99.90;;;;;;487313;243;28414;-75
2023/04/11 03:28:24;;;;;;;3.50;1.60;;;8.40;99.90;;;;;;487106;244;27991;-75
2023/04/11 03:30:25;;;;;;;1.97;1.57;;;8.30;99.90;;;;;;487295;244;27953;-75
2023/04/11 03:32:26;;;;;;;1.63;1.50;;;8.30;99.90;;;;;;487259;244;28411;-75
2023/04/11 03:34:28;;;;;;;5.27;1.87;;;8.30;99.90;;;;;;487140;243;27920;-75
2023/04/11 03:36:30;;;;;;;3.33;1.70;;;8.30;99.90;;;;;;487298;244;27789;-75
2023/04/11 03:38:30;;;;;;;3.70;1.40;;;8.30;99.90;;;;;;487216;244;27451;-74
2023/04/11 03:40:31;;;;;;;2.97;1.60;;;8.30;99.90;;;;;;487295;243;27758;-75
2023/04/11 03:42:33;;;;;;;2.60;1.57;;;8.30;99.90;;;;;;487240;244;27786;-75
2023/04/11 03:44:34;;;;;;;3.47;1.77;;;8.30;99.90;;;;;;487074;244;28351;-75
2023/04/11 03:46:35;;;;;;;2.50;1.40;;;8.30;99.90;;;;;;487265;244;28439;-75
2023/04/11 03:48:36;;;;;;;4.10;1.40;;;8.30;99.90;;;;;;487312;244;28252;-75
2023/04/11 03:50:38;;;;;;;4.83;1.57;;;8.20;99.90;;;;;;487281;244;27913;-75
2023/04/11 03:52:39;;;;;;;2.53;1.67;;;8.20;99.90;;;;;;487293;244;28099;-75
2023/04/11 03:54:40;;;;;;;3.37;1.40;;;8.30;99.90;;;;;;487173;244;27982;-75
2023/04/11 03:56:41;;;;;;;2.70;1.30;;;8.20;99.90;;;;;;487280;244;27917;-74
2023/04/11 03:58:43;;;;;;;3.87;1.30;;;8.20;99.90;;;;;;487315;243;27844;-75
2023/04/11 04:00:45;;;;;;;2.83;1.50;;;8.20;99.90;;;;;;487298;244;27618;-75
2023/04/11 04:02:45;;;;;;;5.43;1.57;;;8.10;99.90;;;;;;487236;244;27572;-75
2023/04/11 04:04:47;;;;;;;2.77;1.57;;;8.10;99.90;;;;;;487185;243;27939;-75
2023/04/11 04:06:48;;;;;;;2.50;1.77;;;8.00;99.90;;;;;;487273;244;28498;-75
2023/04/11 04:08:49;;;;;;;2.30;1.80;;;8.00;99.90;;;;;;487316;244;28191;-75
2023/04/11 04:10:50;;;;;;;1.10;1.10;;;8.00;99.90;;;;;;487261;244;28337;-75
2023/04/11 04:12:51;;;;;;;2.50;1.57;;;7.90;99.90;;;;;;487275;244;28604;-75
2023/04/11 04:14:53;;;;;;;1.47;1.20;;;7.90;99.90;;;;;;487147;244;28428;-75
2023/04/11 04:16:54;;;;;;;2.13;1.30;;;7.90;99.90;;;;;;487322;244;27656;-75
2023/04/11 04:18:55;;;;;;;2.60;1.33;;;7.90;99.90;;;;;;487348;244;27908;-75
2023/04/11 04:20:56;;;;;;;2.23;1.70;;;7.90;99.90;;;;;;487331;244;27855;-75
2023/04/11 04:22:59;;;;;;;3.13;1.70;;;7.80;99.90;;;;;;487309;244;27668;-75
2023/04/11 04:24:59;;;;;;;5.10;1.50;;;7.90;99.90;;;;;;487205;244;27951;-75
2023/04/11 04:27:00;;;;;;;4.30;1.77;;;7.90;99.90;;;;;;487332;244;27649;-75
2023/04/11 04:29:05;;;;;;;2.07;1.47;;;7.90;99.90;;;;;;487338;244;27921;-75
2023/04/11 04:31:03;;;;;;;11.53;1.70;;;7.90;99.90;;;;;;486749;244;27973;-75
2023/04/11 04:33:04;;;;;;;7.53;2.10;;;7.90;99.90;;;;;;487275;244;27676;-75
2023/04/11 04:35:05;;;;;;;3.27;1.60;;;7.80;99.90;;;;;;487175;244;27993;-75
2023/04/11 04:37:06;;;;;;;2.80;1.60;;;7.70;99.90;;;;;;487297;244;27879;-75
2023/04/11 04:39:08;;;;;;;2.43;1.50;;;7.80;99.90;;;;;;487315;244;28025;-75
2023/04/11 04:41:15;;;;;;;2.60;1.60;;;7.80;99.90;;;;;;487236;244;28500;-75
2023/04/11 04:43:19;;;;;;;4.30;1.60;;;7.80;99.90;;;;;;487269;244;27993;-75
2023/04/11 04:45:20;;;;;;;2.70;1.60;;;7.70;99.90;;;;;;487202;244;27945;-74
2023/04/11 04:47:21;;;;;;;2.13;1.40;;;7.70;99.90;;;;;;487272;244;27735;-75
2023/04/11 04:49:23;;;;;;;1.57;1.20;;;7.80;99.90;;;;;;487295;244;28049;-75
2023/04/11 04:51:26;;;;;;;5.40;2.03;;;7.70;99.90;;;;;;487289;244;28372;-75
2023/04/11 04:53:25;;;;;;;2.60;1.50;;;7.80;99.90;;;;;;487163;244;28195;-75
2023/04/11 04:55:27;;;;;;;3.53;1.83;;;7.80;99.90;;;;;;487192;244;28403;-75
2023/04/11 04:57:28;;;;;;;4.27;1.93;;;7.80;99.90;;;;;;487230;244;28255;-75
2023/04/11 04:59:29;;;;;;;2.80;1.60;;;7.80;99.90;;;;;;487260;244;28400;-75
2023/04/11 05:01:31;;;;;;;2.27;1.60;;;7.70;99.90;;;;;;487288;244;28020;-75
2023/04/11 05:03:34;;;;;;;5.53;2.37;;;7.80;99.90;;;;;;487237;244;27818;-75
2023/04/11 05:05:33;;;;;;;3.40;2.13;;;7.80;99.90;;;;;;487060;244;27823;-75
2023/04/11 05:07:35;;;;;;;4.30;2.67;;;7.80;99.90;;;;;;487256;244;27702;-75
2023/04/11 05:09:35;;;;;;;5.87;2.07;;;8.10;99.90;;;;;;487262;244;27954;-75
2023/04/11 05:11:36;;;;;;;3.60;2.80;;;7.70;99.90;;;;;;487300;244;28062;-75
2023/04/11 05:13:38;;;;;;;7.13;2.30;;;7.70;99.90;;;;;;487297;244;28023;-76
2023/04/11 05:15:39;;;;;;;8.50;2.63;;;7.70;99.90;;;;;;487192;243;27723;-75
2023/04/11 05:17:41;;;;;;;4.57;1.80;;;7.70;99.90;;;;;;487245;244;28008;-75
2023/04/11 05:19:41;;;;;;;6.97;2.40;;;7.70;99.90;;;;;;487267;244;27794;-75
2023/04/11 05:21:43;;;;;;;3.27;2.00;;;7.70;99.90;;;;;;487313;244;28062;-75
2023/04/11 05:23:44;;;;;;;4.03;2.37;;;7.70;99.90;;;;;;487278;244;27597;-75
2023/04/11 05:25:45;;;;;;;6.40;2.07;;;7.80;99.90;;;;;;487200;244;27972;-75
2023/04/11 05:27:46;;;;;;;6.90;3.00;;;7.80;99.90;;;;;;487199;244;27886;-75
2023/04/11 05:29:48;;;;;;;6.10;2.23;;;7.80;99.90;;;;;;487301;244;28400;-75
2023/04/11 05:31:49;;;;;;;7.20;2.20;;;7.70;99.90;;;;;;487301;244;28410;-75
2023/04/11 05:33:50;;;;;;;4.83;2.10;;;7.70;99.90;;;;;;487291;244;27858;-75
2023/04/11 05:35:51;;;;;;;6.03;2.57;;;7.70;99.90;;;;;;487171;244;28417;-75
2023/04/11 05:37:53;;;;;;;9.33;3.17;;;7.70;99.90;;;;;;487261;243;28300;-75
2023/04/11 05:39:55;;;;;;;6.90;2.30;;;7.70;99.90;;;;;;487283;243;28073;-75
2023/04/11 05:41:55;;;;;;;4.43;2.20;;;7.70;99.90;;;;;;487215;244;27996;-75
2023/04/11 05:43:56;;;;;;;5.03;2.13;;;7.70;99.90;;;;;;487272;244;28028;-75
2023/04/11 05:45:58;;;;;;;8.23;2.80;;;7.70;99.90;;;;;;487199;244;27886;-75
2023/04/11 05:47:59;;;;;;;5.73;2.73;;;7.70;99.90;;;;;;487248;244;27952;-75
2023/04/11 05:50:00;;;;;;;4.90;2.63;;;7.60;99.90;;;;;;487270;244;27985;-75
2023/04/11 05:52:01;;;;;;;5.93;2.70;;;7.60;99.90;;;;;;487290;244;28025;-75
2023/04/11 05:54:03;;;;;;;5.43;2.57;;;7.60;99.90;;;;;;487255;244;27970;-75
2023/04/11 05:56:04;;;;;;;4.40;2.20;;;7.50;99.90;;;;;;487232;244;28032;-75
2023/04/11 05:58:05;;;;;;;8.80;2.60;;;7.50;99.90;;;;;;487287;244;28068;-75
2023/04/11 06:00:15;;;;;;;10.13;2.93;;;7.50;99.90;;;;;;487317;244;28273;-75
2023/04/11 06:02:14;;;;;;;3.97;2.50;;;7.70;99.90;;;;;;487152;244;28387;-75
2023/04/11 06:04:15;;;;;;;5.80;2.87;;;7.80;99.90;;;;;;487274;244;28123;-75
2023/04/11 06:06:16;;;;;;;5.63;2.30;;;7.80;99.90;;;;;;487269;243;28397;-75
2023/04/11 06:08:17;;;;;;;9.83;2.80;;;7.80;99.90;;;;;;487279;244;28428;-75
2023/04/11 06:10:19;;;;;;;8.63;3.23;;;7.80;99.90;;;;;;487271;244;27894;-75
2023/04/11 06:12:20;;;;;;;6.57;3.00;;;7.80;99.90;;;;;;487295;244;27860;-76
2023/04/11 06:14:21;;;;;;;5.80;3.10;;;7.80;99.90;;;;;;487223;244;27846;-75
2023/04/11 06:16:22;;;;;;;6.33;3.00;;;7.80;99.90;;;;;;487286;244;27831;-75
2023/04/11 06:18:24;;;;;;;10.13;3.40;;;7.90;99.90;;;;;;487299;244;27565;-75
2023/04/11 06:20:25;;;;;;;7.07;2.87;;;7.90;99.90;;;;;;487228;244;27934;-75
2023/04/11 06:22:26;;;;;;;4.40;2.90;;;7.90;99.90;;;;;;487336;244;28224;-75
2023/04/11 06:24:27;;;;;;;7.27;2.87;;;7.90;99.90;;;;;;487245;244;27745;-76
2023/04/11 06:26:29;;;;;;;10.47;3.33;;;8.00;99.90;;;;;;487300;244;27737;-75
2023/04/11 06:28:30;;;;;;;11.00;3.50;;;8.20;99.90;;;;;;487256;244;27846;-76
2023/04/11 06:30:31;;;;;;;7.60;2.90;;;8.30;99.90;;;;;;487239;244;27809;-75
2023/04/11 06:32:32;;;;;;;5.90;3.10;;;8.30;99.90;;;;;;487293;244;28076;-75
2023/04/11 06:34:34;;;;;;;4.53;2.90;;;8.30;99.90;;;;;;487247;244;28518;-75
2023/04/11 06:36:36;;;;;;;9.63;3.33;;;8.20;99.90;;;;;;487275;244;28401;-75
2023/04/11 06:38:37;;;;;;;5.87;3.13;;;8.20;99.90;;;;;;487241;244;28202;-75
2023/04/11 06:40:37;;;;;;;11.53;2.83;;;8.10;99.90;;;;;;487237;244;28409;-75
2023/04/11 06:42:39;;;;;;;6.73;2.60;;;8.10;99.90;;;;;;487301;244;27886;-76
2023/04/11 06:44:40;;;;;;;14.83;3.33;;;8.10;99.90;;;;;;487218;244;28123;-76
2023/04/11 06:46:41;;;;;;;8.03;2.20;;;8.20;99.90;;;;;;487233;244;27716;-75
2023/04/11 06:48:42;;;;;;;8.40;2.93;;;8.10;99.90;;;;;;487213;244;27727;-75
2023/04/11 06:50:44;;;;;;;5.70;2.40;;;8.20;99.90;;;;;;487262;244;27911;-75
2023/04/11 06:52:45;;;;;;;6.10;2.23;;;8.30;99.90;;;;;;487269;244;27927;-75
2023/04/11 06:54:46;;;;;;;8.57;3.10;;;8.20;99.90;;;;;;487229;244;27908;-75
2023/04/11 06:56:52;;;;;;;8.53;2.30;;;8.00;99.90;;;;;;487241;243;27927;-75
2023/04/11 06:58:49;;;;;;;6.20;2.27;;;7.90;99.90;;;;;;486509;244;27868;-75
2023/04/11 07:00:50;;;;;;;4.40;2.80;;;7.80;99.90;;;;;;487276;244;27928;-76
2023/04/11 07:02:51;;;;;;;6.70;2.33;;;7.90;99.90;;;;;;487288;244;27924;-75
2023/04/11 07:04:52;;;;;;;10.57;2.90;;;8.00;99.90;;;;;;487228;244;27890;-75
2023/04/11 07:06:54;;;;;;;7.67;2.27;;;8.00;99.90;;;;;;487231;244;28041;-75
2023/04/11 07:08:55;;;;;;;7.03;2.07;;;7.80;99.90;;;;;;487125;244;28257;-75
2023/04/11 07:10:56;;;;;;;7.90;3.30;;;7.80;99.90;;;;;;487254;244;28355;-75
2023/04/11 07:12:57;;;;;;;3.90;2.67;;;7.80;99.90;;;;;;487294;244;28639;-75
2023/04/11 07:14:59;;;;;;;6.10;2.20;;;7.70;99.90;;;;;;487205;244;28296;-75
2023/04/11 07:17:00;;;;;;;7.70;2.30;;;7.50;99.90;;;;;;487209;244;28410;-75
2023/04/11 07:19:02;;;;;;;8.40;2.57;;;7.50;99.90;;;;;;487259;244;27968;-75
2023/04/11 07:21:02;;;;;;;8.37;2.77;;;7.50;99.90;;;;;;487290;244;27911;-75
2023/04/11 07:23:04;;;;;;;9.73;3.00;;;7.50;99.90;;;;;;487290;244;27639;-75
2023/04/11 07:25:05;;;;;;;6.20;2.20;;;7.50;99.90;;;;;;487251;244;27835;-75
2023/04/11 07:27:06;;;;;;;5.50;2.70;;;7.50;99.90;;;;;;487295;244;27999;-75
2023/04/11 07:29:08;;;;;;;8.47;3.17;;;7.50;99.90;;;;;;487245;244;27498;-75
2023/04/11 07:31:09;;;;;;;6.57;2.93;;;7.60;99.90;;;;;;487291;243;27924;-75
2023/04/11 07:33:10;;;;;;;6.80;2.70;;;7.70;99.90;;;;;;487250;244;27930;-75
2023/04/11 07:35:11;;;;;;;10.03;2.90;;;7.70;99.90;;;;;;487189;244;28017;-75
2023/04/11 07:37:13;;;;;;;9.90;3.60;;;7.70;99.90;;;;;;487218;244;27981;-75
2023/04/11 07:39:14;;;;;;;9.50;2.63;;;7.80;99.90;;;;;;487262;244;27843;-75
2023/04/11 07:41:15;;;;;;;9.30;2.60;;;7.90;99.90;;;;;;487318;244;28412;-75
2023/04/11 07:43:16;;;;;;;9.63;2.80;;;8.00;99.90;;;;;;487318;244;28504;-75
2023/04/11 07:45:18;;;;;;;16.50;3.23;;;8.10;99.90;;;;;;487252;244;27727;-75
2023/04/11 07:47:19;;;;;;;9.27;2.80;;;8.10;99.90;;;;;;487292;244;27926;-75
2023/04/11 07:49:20;;;;;;;11.23;2.60;;;8.10;99.90;;;;;;487265;244;27890;-75
2023/04/11 07:51:21;;;;;;;7.47;2.33;;;8.10;99.90;;;;;;487314;244;27877;-75
2023/04/11 07:53:23;;;;;;;7.70;2.60;;;8.30;99.90;;;;;;487297;244;28051;-76
2023/04/11 07:55:24;;;;;;;8.00;3.30;;;8.40;99.90;;;;;;487219;243;27970;-75
2023/04/11 07:57:25;;;;;;;14.10;3.00;;;8.50;99.90;;;;;;487260;244;27924;-76
2023/04/11 07:59:26;;;;;;;9.03;2.70;;;8.60;99.90;;;;;;487260;244;27878;-75
2023/04/11 08:01:28;;;;;;;12.40;3.33;;;8.80;99.90;;;;;;487280;244;27511;-75
2023/04/11 08:03:29;;;;;;;13.10;2.83;;;8.90;99.90;;;;;;487281;244;28039;-75
2023/04/11 08:05:30;;;;;;;8.80;2.70;;;8.90;99.90;;;;;;487232;244;27796;-75
2023/04/11 08:07:31;;;;;;;14.83;3.80;;;9.20;99.90;;;;;;487272;244;27634;-75
2023/04/11 08:09:33;;;;;;;11.93;3.43;;;9.20;99.90;;;;;;487293;244;29077;-76
2023/04/11 08:11:34;;;;;;;8.60;2.37;;;9.20;99.90;;;;;;487317;244;28426;-75
2023/04/11 08:13:35;;;;;;;7.50;2.90;;;9.10;99.90;;;;;;487288;244;28540;-75
2023/04/11 08:15:37;;;;;;;7.83;2.57;;;9.20;99.90;;;;;;487249;244;28489;-75
2023/04/11 08:17:39;;;;;;;10.93;2.97;;;9.10;99.90;;;;;;487254;243;27873;-75
2023/04/11 08:19:39;;;;;;;5.27;2.53;;;9.10;99.90;;;;;;487196;244;27944;-76
2023/04/11 08:21:40;;;;;;;8.10;2.90;;;9.20;99.90;;;;;;487309;243;27862;-75
2023/04/11 08:23:41;;;;;;;15.73;2.73;;;9.20;99.90;;;;;;487310;244;28090;-75
2023/04/11 08:25:43;;;;;;;10.33;2.83;;;9.00;99.90;;;;;;487221;244;27620;-76
2023/04/11 08:27:44;;;;;;;9.00;3.37;;;9.00;99.90;;;;;;487303;243;27969;-75
2023/04/11 08:29:45;;;;;;;8.27;2.57;;;9.20;99.90;;;;;;487259;244;27879;-75
2023/04/11 08:31:46;;;;;;;11.37;2.60;;;9.40;99.90;;;;;;487298;244;27869;-76
2023/04/11 08:33:48;;;;;;;9.50;2.80;;;9.60;99.90;;;;;;487316;243;27992;-75
2023/04/11 08:35:49;;;;;;;11.03;2.70;;;9.60;99.90;;;;;;487212;244;28017;-75
2023/04/11 08:37:50;;;;;;;11.53;2.30;;;9.70;99.90;;;;;;487264;244;28488;-76
2023/04/11 08:39:51;;;;;;;9.40;2.87;;;9.30;99.90;;;;;;487283;244;28345;-75
2023/04/11 08:41:53;;;;;;;8.37;2.37;;;9.20;99.90;;;;;;487297;244;28482;-75
2023/04/11 08:43:54;;;;;;;9.30;3.10;;;9.30;99.90;;;;;;487322;244;28288;-76
2023/04/11 08:45:55;;;;;;;10.73;2.53;;;9.40;99.90;;;;;;487266;244;28380;-75
2023/04/11 08:47:56;;;;;;;10.37;2.63;;;9.50;99.90;;;;;;487291;244;28043;-75
2023/04/11 08:49:58;;;;;;;8.77;2.80;;;9.40;99.90;;;;;;487280;244;27881;-76
2023/04/11 08:51:59;;;;;;;7.90;2.57;;;9.40;99.90;;;;;;487272;244;27699;-75
2023/04/11 08:54:00;;;;;;;7.00;2.47;;;9.30;99.90;;;;;;487306;244;28040;-75
2023/04/11 08:56:01;;;;;;;6.00;2.20;;;9.30;99.90;;;;;;487274;244;27760;-75
2023/04/11 08:58:03;;;;;;;9.97;2.40;;;9.30;99.90;;;;;;487282;244;28049;-76
2023/04/11 09:00:13;;;;;;;4.60;1.87;;;9.40;99.90;;;;;;487272;244;27953;-76
2023/04/11 09:02:08;;;;;;;12.10;2.37;;;9.50;99.90;;;;;;486876;244;28006;-75
2023/04/11 09:04:10;;;;;;;8.43;2.67;;;9.40;99.90;;;;;;487308;244;28104;-75
2023/04/11 09:06:11;;;;;;;7.27;2.03;;;9.50;99.90;;;;;;487116;244;27999;-76
2023/04/11 09:08:12;;;;;;;6.33;1.80;;;9.20;99.90;;;;;;487272;244;27958;-76
2023/04/11 09:10:13;;;;;;;3.83;1.70;;;9.30;99.90;;;;;;487298;244;28546;-76
2023/04/11 09:12:15;;;;;;;6.47;2.20;;;9.10;99.90;;;;;;487282;244;28339;-75
2023/04/11 09:14:16;;;;;;;6.33;1.97;;;9.00;99.90;;;;;;487296;243;28449;-75
2023/04/11 09:16:17;;;;;;;5.77;2.13;;;9.00;99.90;;;;;;487297;243;28289;-75
2023/04/11 09:18:18;;;;;;;11.63;2.50;;;9.10;99.90;;;;;;487350;244;28326;-75
2023/04/11 09:20:19;;;;;;;6.60;2.30;;;9.20;99.90;;;;;;487311;243;28006;-75
2023/04/11 09:22:21;;;;;;;9.10;2.47;;;9.20;99.90;;;;;;487291;244;27862;-75
2023/04/11 09:24:22;;;;;;;9.47;2.40;;;9.20;99.90;;;;;;487223;244;27903;-76
2023/04/11 09:26:23;;;;;;;8.50;3.27;;;9.30;99.90;;;;;;487339;244;28020;-76
2023/04/11 09:28:24;;;;;;;7.18;2.30;;;9.30;99.90;;;;;;483837;244;36060;-76
2023/04/11 09:30:26;;;;;;;6.27;3.07;;;9.40;99.90;;;;;;487312;244;27431;-76
2023/04/11 09:32:32;;;;;;;6.80;2.17;;;9.30;99.90;;;;;;487263;244;27957;-76
2023/04/11 09:34:31;;;;;;;12.03;2.57;;;9.40;99.90;;;;;;487094;244;27977;-75
2023/04/11 09:36:32;;;;;;;6.87;2.37;;;9.40;99.90;;;;;;487304;244;27885;-76
2023/04/11 09:38:34;;;;;;;8.80;2.27;;;9.40;99.90;;;;;;487294;244;27987;-76
2023/04/11 09:40:35;;;;;;;7.63;2.00;;;9.40;99.90;;;;;;487288;244;27814;-75
2023/04/11 09:42:36;;;;;;;12.00;2.73;;;9.30;99.90;;;;;;487269;244;27910;-75
2023/04/11 09:44:37;;;;;;;9.50;2.30;;;9.40;99.90;;;;;;487070;244;27903;-76
2023/04/11 09:46:40;;;;;;;6.30;2.30;;;9.50;99.90;;;;;;487316;244;27554;-75
2023/04/11 09:48:40;;;;;;;8.13;2.33;;;9.60;99.90;;;;;;487238;244;28016;-75
2023/04/11 09:50:41;;;;;;;9.53;3.00;;;9.90;99.90;;;;;;487295;244;27870;-76
2023/04/11 09:52:42;;;;;;;5.20;1.90;;;9.90;99.90;;;;;;487266;244;28052;-76
2023/04/11 09:54:44;;;;;;;4.80;1.80;;;9.80;99.90;;;;;;487207;244;27963;-75
2023/04/11 09:56:45;;;;;;;7.33;2.63;;;9.60;99.90;;;;;;487313;244;28098;-75
2023/04/11 09:58:46;;;;;;;7.07;1.73;;;9.50;99.90;;;;;;487327;244;28431;-76
2023/04/11 10:00:47;;;;;;;6.70;1.97;;;9.10;99.90;;;;;;487283;244;28342;-76
2023/04/11 10:02:49;;;;;;;5.10;1.33;;;8.70;99.90;;;;;;487287;243;28393;-76
2023/04/11 10:04:50;;;;;;;3.30;1.63;;;8.40;99.90;;;;;;487215;244;28146;-75
2023/04/11 10:06:51;;;;;;;5.50;2.10;;;8.50;99.90;;;;;;487270;244;28050;-75
2023/04/11 10:08:52;;;;;;;6.23;2.00;;;8.70;99.90;;;;;;487323;244;27770;-75
2023/04/11 10:10:55;;;;;;;4.77;1.97;;;8.90;99.90;;;;;;487310;244;27861;-76
2023/04/11 10:12:55;;;;;;;6.30;1.80;;;8.80;99.90;;;;;;487206;244;27829;-75
2023/04/11 10:14:56;;;;;;;9.30;2.03;;;8.80;99.90;;;;;;487233;244;27841;-76
2023/04/11 10:16:57;;;;;;;3.63;1.90;;;8.80;99.90;;;;;;487295;244;28028;-76
2023/04/11 10:19:03;;;;;;;5.53;2.23;;;8.80;99.90;;;;;;487305;244;28101;-76
2023/04/11 10:21:03;;;;;;;5.27;2.07;;;8.80;99.90;;;;;;487221;244;27791;-75
2023/04/11 10:23:04;;;;;;;7.63;1.90;;;8.70;99.90;;;;;;487267;243;27492;-75
2023/04/11 10:25:07;;;;;;;10.03;2.73;;;8.70;99.90;;;;;;487220;244;27794;-76
2023/04/11 10:27:06;;;;;;;4.63;1.63;;;8.80;99.90;;;;;;487144;244;27612;-75
2023/04/11 10:29:08;;;;;;;6.50;1.73;;;8.80;99.90;;;;;;487232;244;27823;-75
2023/04/11 10:31:12;;;;;;;6.07;2.57;;;9.00;99.90;;;;;;487289;244;27690;-75
2023/04/11 10:33:10;;;;;;;7.40;1.90;;;9.30;99.90;;;;;;487095;244;27675;-76
2023/04/11 10:35:11;;;;;;;13.90;2.30;;;9.50;99.90;;;;;;487214;244;28026;-75
2023/04/11 10:37:13;;;;;;;6.50;1.87;;;9.80;99.90;;;;;;487282;244;28052;-76